sensor_id;sensor_type;location;lat;lon;timestamp;temperature;humidity
48876;DHT22;34689;51.644;5.618;2022-07-29T00:02:15;20.60;66.10
48876;DHT22;34689;51.644;5.618;2022-07-29T00:04:42;20.60;66.20
48876;DHT22;34689;51.644;5.618;2022-07-29T00:07:08;20.60;66.20
48876;DHT22;34689;51.644;5.618;2022-07-29T00:09:34;20.50;66.30
48876;DHT22;34689;51.644;5.618;2022-07-29T00:12:00;20.50;66.40
48876;DHT22;34689;51.644;5.618;2022-07-29T00:14:27;20.50;66.50
48876;DHT22;34689;51.644;5.618;2022-07-29T00:16:53;20.50;66.50
48876;DHT22;34689;51.644;5.618;2022-07-29T00:19:18;20.50;66.50
48876;DHT22;34689;51.644;5.618;2022-07-29T00:21:44;20.50;66.60
48876;DHT22;34689;51.644;5.618;2022-07-29T00:24:12;20.50;66.60
48876;DHT22;34689;51.644;5.618;2022-07-29T00:26:38;20.50;66.60
48876;DHT22;34689;51.644;5.618;2022-07-29T00:29:04;20.50;66.60
48876;DHT22;34689;51.644;5.618;2022-07-29T00:31:32;20.50;66.60
48876;DHT22;34689;51.644;5.618;2022-07-29T00:33:57;20.50;66.70
48876;DHT22;34689;51.644;5.618;2022-07-29T00:36:23;20.50;66.70
48876;DHT22;34689;51.644;5.618;2022-07-29T00:38:50;20.50;66.80
48876;DHT22;34689;51.644;5.618;2022-07-29T00:41:16;20.50;67.00
48876;DHT22;34689;51.644;5.618;2022-07-29T00:43:42;20.50;67.00
48876;DHT22;34689;51.644;5.618;2022-07-29T00:46:08;20.40;67.10
48876;DHT22;34689;51.644;5.618;2022-07-29T00:48:34;20.40;67.50
48876;DHT22;34689;51.644;5.618;2022-07-29T00:51:01;20.40;68.20
48876;DHT22;34689;51.644;5.618;2022-07-29T00:53:27;20.40;68.50
48876;DHT22;34689;51.644;5.618;2022-07-29T00:55:57;20.40;68.60
48876;DHT22;34689;51.644;5.618;2022-07-29T00:58:23;20.30;68.60
48876;DHT22;34689;51.644;5.618;2022-07-29T01:00:49;20.30;68.60
48876;DHT22;34689;51.644;5.618;2022-07-29T01:03:15;20.30;68.70
48876;DHT22;34689;51.644;5.618;2022-07-29T01:05:41;20.30;68.70
48876;DHT22;34689;51.644;5.618;2022-07-29T01:08:08;20.30;69.00
48876;DHT22;34689;51.644;5.618;2022-07-29T01:10:38;20.20;69.30
48876;DHT22;34689;51.644;5.618;2022-07-29T01:13:06;20.20;69.40
48876;DHT22;34689;51.644;5.618;2022-07-29T01:15:40;20.20;70.10
48876;DHT22;34689;51.644;5.618;2022-07-29T01:19:03;20.20;69.40
48876;DHT22;34689;51.644;5.618;2022-07-29T01:29:11;19.90;70.10
48876;DHT22;34689;51.644;5.618;2022-07-29T01:31:58;20.00;70.20
48876;DHT22;34689;51.644;5.618;2022-07-29T01:34:41;19.90;70.30
48876;DHT22;34689;51.644;5.618;2022-07-29T01:37:19;19.90;70.40
48876;DHT22;34689;51.644;5.618;2022-07-29T01:39:48;19.90;70.40
48876;DHT22;34689;51.644;5.618;2022-07-29T01:45:10;19.90;70.60
48876;DHT22;34689;51.644;5.618;2022-07-29T01:47:42;19.90;70.70
48876;DHT22;34689;51.644;5.618;2022-07-29T01:50:12;19.90;70.80
48876;DHT22;34689;51.644;5.618;2022-07-29T01:52:47;19.90;71.00
48876;DHT22;34689;51.644;5.618;2022-07-29T01:55:16;19.90;71.50
48876;DHT22;34689;51.644;5.618;2022-07-29T01:57:46;19.90;71.90
48876;DHT22;34689;51.644;5.618;2022-07-29T02:00:12;19.90;72.40
48876;DHT22;34689;51.644;5.618;2022-07-29T02:02:41;19.90;72.50
48876;DHT22;34689;51.644;5.618;2022-07-29T02:05:10;19.90;73.10
48876;DHT22;34689;51.644;5.618;2022-07-29T02:07:38;19.90;73.60
48876;DHT22;34689;51.644;5.618;2022-07-29T02:10:06;19.80;74.00
48876;DHT22;34689;51.644;5.618;2022-07-29T02:12:33;19.80;74.70
48876;DHT22;34689;51.644;5.618;2022-07-29T02:15:01;19.70;75.20
48876;DHT22;34689;51.644;5.618;2022-07-29T02:17:38;19.60;76.10
48876;DHT22;34689;51.644;5.618;2022-07-29T02:20:05;19.60;76.60
48876;DHT22;34689;51.644;5.618;2022-07-29T02:22:33;19.50;76.60
48876;DHT22;34689;51.644;5.618;2022-07-29T02:25:01;19.20;77.10
48876;DHT22;34689;51.644;5.618;2022-07-29T02:27:28;19.20;78.10
48876;DHT22;34689;51.644;5.618;2022-07-29T02:29:54;19.20;78.90
48876;DHT22;34689;51.644;5.618;2022-07-29T02:32:21;19.20;79.20
48876;DHT22;34689;51.644;5.618;2022-07-29T02:34:49;19.10;79.30
48876;DHT22;34689;51.644;5.618;2022-07-29T02:37:16;19.10;79.50
48876;DHT22;34689;51.644;5.618;2022-07-29T02:39:46;19.10;79.80
48876;DHT22;34689;51.644;5.618;2022-07-29T02:42:15;19.00;79.80
48876;DHT22;34689;51.644;5.618;2022-07-29T02:44:41;19.00;80.50
48876;DHT22;34689;51.644;5.618;2022-07-29T02:47:13;18.90;80.40
48876;DHT22;34689;51.644;5.618;2022-07-29T02:50:00;18.90;80.60
48876;DHT22;34689;51.644;5.618;2022-07-29T02:52:37;18.90;80.90
48876;DHT22;34689;51.644;5.618;2022-07-29T03:00:23;18.80;81.20
48876;DHT22;34689;51.644;5.618;2022-07-29T03:02:55;18.80;81.50
48876;DHT22;34689;51.644;5.618;2022-07-29T03:05:22;18.70;81.70
48876;DHT22;34689;51.644;5.618;2022-07-29T03:08:06;18.70;82.00
48876;DHT22;34689;51.644;5.618;2022-07-29T03:10:34;18.60;82.40
48876;DHT22;34689;51.644;5.618;2022-07-29T03:13:04;18.60;82.40
48876;DHT22;34689;51.644;5.618;2022-07-29T03:15:30;18.60;82.70
48876;DHT22;34689;51.644;5.618;2022-07-29T03:17:58;18.50;82.70
48876;DHT22;34689;51.644;5.618;2022-07-29T03:20:25;18.50;82.90
48876;DHT22;34689;51.644;5.618;2022-07-29T03:22:51;18.50;83.80
48876;DHT22;34689;51.644;5.618;2022-07-29T03:25:18;18.50;83.20
48876;DHT22;34689;51.644;5.618;2022-07-29T03:27:45;18.40;83.40
48876;DHT22;34689;51.644;5.618;2022-07-29T03:30:12;18.40;83.50
48876;DHT22;34689;51.644;5.618;2022-07-29T03:32:39;18.40;83.50
48876;DHT22;34689;51.644;5.618;2022-07-29T03:35:05;18.40;83.90
48876;DHT22;34689;51.644;5.618;2022-07-29T03:37:31;18.30;83.70
48876;DHT22;34689;51.644;5.618;2022-07-29T03:40:00;18.30;84.20
48876;DHT22;34689;51.644;5.618;2022-07-29T03:42:33;18.20;84.20
48876;DHT22;34689;51.644;5.618;2022-07-29T03:45:05;18.20;84.50
48876;DHT22;34689;51.644;5.618;2022-07-29T03:47:34;18.20;84.50
48876;DHT22;34689;51.644;5.618;2022-07-29T03:50:05;18.20;84.40
48876;DHT22;34689;51.644;5.618;2022-07-29T03:52:31;18.20;84.50
48876;DHT22;34689;51.644;5.618;2022-07-29T03:54:57;18.20;84.80
48876;DHT22;34689;51.644;5.618;2022-07-29T03:57:25;18.30;84.90
48876;DHT22;34689;51.644;5.618;2022-07-29T03:59:53;18.20;84.60
48876;DHT22;34689;51.644;5.618;2022-07-29T04:02:19;18.20;84.70
48876;DHT22;34689;51.644;5.618;2022-07-29T04:04:45;18.20;84.90
48876;DHT22;34689;51.644;5.618;2022-07-29T04:07:17;18.20;84.90
48876;DHT22;34689;51.644;5.618;2022-07-29T04:09:43;18.20;85.10
48876;DHT22;34689;51.644;5.618;2022-07-29T04:12:09;18.20;85.20
48876;DHT22;34689;51.644;5.618;2022-07-29T04:14:35;18.20;85.40
48876;DHT22;34689;51.644;5.618;2022-07-29T04:17:02;18.20;85.40
48876;DHT22;34689;51.644;5.618;2022-07-29T04:19:28;18.20;85.20
48876;DHT22;34689;51.644;5.618;2022-07-29T04:21:53;18.10;85.40
48876;DHT22;34689;51.644;5.618;2022-07-29T04:24:19;18.00;85.50
48876;DHT22;34689;51.644;5.618;2022-07-29T04:26:46;18.00;86.40
48876;DHT22;34689;51.644;5.618;2022-07-29T04:29:12;18.00;85.80
48876;DHT22;34689;51.644;5.618;2022-07-29T04:31:40;18.00;85.70
48876;DHT22;34689;51.644;5.618;2022-07-29T04:34:08;18.00;85.80
48876;DHT22;34689;51.644;5.618;2022-07-29T04:36:34;18.00;86.00
48876;DHT22;34689;51.644;5.618;2022-07-29T04:39:00;18.00;85.90
48876;DHT22;34689;51.644;5.618;2022-07-29T04:41:27;17.90;86.00
48876;DHT22;34689;51.644;5.618;2022-07-29T04:43:53;17.90;86.10
48876;DHT22;34689;51.644;5.618;2022-07-29T04:46:18;17.90;86.20
48876;DHT22;34689;51.644;5.618;2022-07-29T04:48:47;17.80;86.10
48876;DHT22;34689;51.644;5.618;2022-07-29T04:51:16;17.80;86.40
48876;DHT22;34689;51.644;5.618;2022-07-29T04:53:42;17.80;86.40
48876;DHT22;34689;51.644;5.618;2022-07-29T04:56:08;17.90;86.40
48876;DHT22;34689;51.644;5.618;2022-07-29T04:58:37;17.90;86.40
48876;DHT22;34689;51.644;5.618;2022-07-29T05:01:03;17.90;86.30
48876;DHT22;34689;51.644;5.618;2022-07-29T05:03:29;17.80;86.50
48876;DHT22;34689;51.644;5.618;2022-07-29T05:05:55;17.80;86.70
48876;DHT22;34689;51.644;5.618;2022-07-29T05:08:20;17.80;86.70
48876;DHT22;34689;51.644;5.618;2022-07-29T05:10:46;17.90;86.80
48876;DHT22;34689;51.644;5.618;2022-07-29T05:13:12;17.90;86.70
48876;DHT22;34689;51.644;5.618;2022-07-29T05:15:37;17.90;86.70
48876;DHT22;34689;51.644;5.618;2022-07-29T05:18:03;17.90;86.50
48876;DHT22;34689;51.644;5.618;2022-07-29T05:20:29;17.90;86.70
48876;DHT22;34689;51.644;5.618;2022-07-29T05:22:59;17.90;86.90
48876;DHT22;34689;51.644;5.618;2022-07-29T05:25:26;18.00;86.90
48876;DHT22;34689;51.644;5.618;2022-07-29T05:27:52;18.00;86.90
48876;DHT22;34689;51.644;5.618;2022-07-29T05:30:18;18.00;86.90
48876;DHT22;34689;51.644;5.618;2022-07-29T05:32:44;18.00;86.90
48876;DHT22;34689;51.644;5.618;2022-07-29T05:35:10;18.00;87.00
48876;DHT22;34689;51.644;5.618;2022-07-29T05:37:36;18.00;87.00
48876;DHT22;34689;51.644;5.618;2022-07-29T05:40:03;18.00;87.00
48876;DHT22;34689;51.644;5.618;2022-07-29T05:42:30;18.00;87.10
48876;DHT22;34689;51.644;5.618;2022-07-29T05:44:56;18.00;87.00
48876;DHT22;34689;51.644;5.618;2022-07-29T05:47:22;18.00;87.00
48876;DHT22;34689;51.644;5.618;2022-07-29T05:49:48;18.00;87.10
48876;DHT22;34689;51.644;5.618;2022-07-29T05:52:17;18.00;87.00
48876;DHT22;34689;51.644;5.618;2022-07-29T05:54:43;18.00;86.90
48876;DHT22;34689;51.644;5.618;2022-07-29T05:57:14;17.90;87.00
48876;DHT22;34689;51.644;5.618;2022-07-29T05:59:40;17.90;87.20
48876;DHT22;34689;51.644;5.618;2022-07-29T06:02:06;17.90;87.30
48876;DHT22;34689;51.644;5.618;2022-07-29T06:04:32;17.80;87.30
48876;DHT22;34689;51.644;5.618;2022-07-29T06:06:58;17.80;87.30
48876;DHT22;34689;51.644;5.618;2022-07-29T06:09:24;17.90;87.40
48876;DHT22;34689;51.644;5.618;2022-07-29T06:11:51;17.90;87.30
48876;DHT22;34689;51.644;5.618;2022-07-29T06:14:17;17.90;87.10
48876;DHT22;34689;51.644;5.618;2022-07-29T06:16:43;17.90;87.10
48876;DHT22;34689;51.644;5.618;2022-07-29T06:19:08;17.90;87.20
48876;DHT22;34689;51.644;5.618;2022-07-29T06:21:34;17.90;87.30
48876;DHT22;34689;51.644;5.618;2022-07-29T06:24:00;17.90;87.10
48876;DHT22;34689;51.644;5.618;2022-07-29T06:26:25;17.90;87.20
48876;DHT22;34689;51.644;5.618;2022-07-29T06:28:51;17.90;87.30
48876;DHT22;34689;51.644;5.618;2022-07-29T06:31:17;17.90;87.70
48876;DHT22;34689;51.644;5.618;2022-07-29T06:33:42;17.90;86.90
48876;DHT22;34689;51.644;5.618;2022-07-29T06:36:08;17.90;87.00
48876;DHT22;34689;51.644;5.618;2022-07-29T06:38:34;17.90;87.00
48876;DHT22;34689;51.644;5.618;2022-07-29T06:41:00;17.90;86.90
48876;DHT22;34689;51.644;5.618;2022-07-29T06:43:46;17.90;86.90
48876;DHT22;34689;51.644;5.618;2022-07-29T06:46:13;18.00;86.90
48876;DHT22;34689;51.644;5.618;2022-07-29T06:48:40;18.00;86.90
48876;DHT22;34689;51.644;5.618;2022-07-29T06:51:08;18.10;86.90
48876;DHT22;34689;51.644;5.618;2022-07-29T06:53:34;18.20;86.80
48876;DHT22;34689;51.644;5.618;2022-07-29T06:56:04;18.20;86.70
48876;DHT22;34689;51.644;5.618;2022-07-29T06:58:30;18.20;86.60
48876;DHT22;34689;51.644;5.618;2022-07-29T07:01:01;18.20;86.60
48876;DHT22;34689;51.644;5.618;2022-07-29T07:03:29;18.30;86.60
48876;DHT22;34689;51.644;5.618;2022-07-29T07:05:55;18.40;86.70
48876;DHT22;34689;51.644;5.618;2022-07-29T07:08:22;18.40;86.60
48876;DHT22;34689;51.644;5.618;2022-07-29T07:10:49;18.30;86.50
48876;DHT22;34689;51.644;5.618;2022-07-29T07:13:15;18.30;86.60
48876;DHT22;34689;51.644;5.618;2022-07-29T07:15:43;18.40;86.60
48876;DHT22;34689;51.644;5.618;2022-07-29T07:18:08;18.30;86.60
48876;DHT22;34689;51.644;5.618;2022-07-29T07:20:34;18.30;86.60
48876;DHT22;34689;51.644;5.618;2022-07-29T07:23:00;18.30;86.90
48876;DHT22;34689;51.644;5.618;2022-07-29T07:25:26;18.30;86.70
48876;DHT22;34689;51.644;5.618;2022-07-29T07:27:52;18.40;86.70
48876;DHT22;34689;51.644;5.618;2022-07-29T07:30:17;18.40;86.60
48876;DHT22;34689;51.644;5.618;2022-07-29T07:32:43;18.40;86.70
48876;DHT22;34689;51.644;5.618;2022-07-29T07:35:09;18.40;86.60
48876;DHT22;34689;51.644;5.618;2022-07-29T07:37:36;18.40;86.60
48876;DHT22;34689;51.644;5.618;2022-07-29T07:40:02;18.40;86.60
48876;DHT22;34689;51.644;5.618;2022-07-29T07:42:28;18.50;86.70
48876;DHT22;34689;51.644;5.618;2022-07-29T07:44:54;18.50;86.60
48876;DHT22;34689;51.644;5.618;2022-07-29T07:47:20;18.50;86.60
48876;DHT22;34689;51.644;5.618;2022-07-29T07:49:49;18.60;86.70
48876;DHT22;34689;51.644;5.618;2022-07-29T07:52:16;18.60;86.70
48876;DHT22;34689;51.644;5.618;2022-07-29T07:54:44;18.60;86.60
48876;DHT22;34689;51.644;5.618;2022-07-29T07:57:11;18.70;86.50
48876;DHT22;34689;51.644;5.618;2022-07-29T07:59:39;18.70;86.50
48876;DHT22;34689;51.644;5.618;2022-07-29T08:02:05;18.70;86.50
48876;DHT22;34689;51.644;5.618;2022-07-29T08:04:31;18.80;86.50
48876;DHT22;34689;51.644;5.618;2022-07-29T08:06:57;18.80;86.50
48876;DHT22;34689;51.644;5.618;2022-07-29T08:09:25;18.90;86.40
48876;DHT22;34689;51.644;5.618;2022-07-29T08:11:51;18.90;86.30
48876;DHT22;34689;51.644;5.618;2022-07-29T08:14:17;18.80;86.30
48876;DHT22;34689;51.644;5.618;2022-07-29T08:16:43;18.80;86.30
48876;DHT22;34689;51.644;5.618;2022-07-29T08:19:12;18.80;86.40
48876;DHT22;34689;51.644;5.618;2022-07-29T08:21:37;18.90;87.10
48876;DHT22;34689;51.644;5.618;2022-07-29T08:24:03;18.90;86.50
48876;DHT22;34689;51.644;5.618;2022-07-29T08:26:48;18.90;86.50
48876;DHT22;34689;51.644;5.618;2022-07-29T08:29:14;19.00;86.50
48876;DHT22;34689;51.644;5.618;2022-07-29T08:31:40;18.90;86.30
48876;DHT22;34689;51.644;5.618;2022-07-29T08:34:08;19.00;86.40
48876;DHT22;34689;51.644;5.618;2022-07-29T08:36:34;19.00;86.50
48876;DHT22;34689;51.644;5.618;2022-07-29T08:39:01;19.00;86.20
48876;DHT22;34689;51.644;5.618;2022-07-29T08:41:27;19.00;86.40
48876;DHT22;34689;51.644;5.618;2022-07-29T08:43:53;19.10;86.50
48876;DHT22;34689;51.644;5.618;2022-07-29T08:46:20;19.20;86.40
48876;DHT22;34689;51.644;5.618;2022-07-29T08:48:47;19.20;86.40
48876;DHT22;34689;51.644;5.618;2022-07-29T08:51:15;19.30;86.40
48876;DHT22;34689;51.644;5.618;2022-07-29T08:53:46;19.30;86.30
48876;DHT22;34689;51.644;5.618;2022-07-29T08:56:15;19.30;86.30
48876;DHT22;34689;51.644;5.618;2022-07-29T08:58:47;19.40;86.30
48876;DHT22;34689;51.644;5.618;2022-07-29T09:01:33;19.40;85.90
48876;DHT22;34689;51.644;5.618;2022-07-29T09:03:59;19.50;86.10
48876;DHT22;34689;51.644;5.618;2022-07-29T09:06:31;19.60;86.00
48876;DHT22;34689;51.644;5.618;2022-07-29T09:08:59;19.60;85.70
48876;DHT22;34689;51.644;5.618;2022-07-29T09:11:26;19.80;85.50
48876;DHT22;34689;51.644;5.618;2022-07-29T09:13:51;19.80;85.40
48876;DHT22;34689;51.644;5.618;2022-07-29T09:16:17;20.00;85.30
48876;DHT22;34689;51.644;5.618;2022-07-29T09:18:45;20.00;85.00
48876;DHT22;34689;51.644;5.618;2022-07-29T09:21:16;20.10;84.90
48876;DHT22;34689;51.644;5.618;2022-07-29T09:24:11;20.20;85.00
48876;DHT22;34689;51.644;5.618;2022-07-29T09:26:40;20.30;84.80
48876;DHT22;34689;51.644;5.618;2022-07-29T09:29:11;20.40;84.50
48876;DHT22;34689;51.644;5.618;2022-07-29T09:31:42;20.50;84.60
48876;DHT22;34689;51.644;5.618;2022-07-29T09:34:10;20.60;84.50
48876;DHT22;34689;51.644;5.618;2022-07-29T09:36:47;20.70;84.40
48876;DHT22;34689;51.644;5.618;2022-07-29T09:39:14;20.80;84.30
48876;DHT22;34689;51.644;5.618;2022-07-29T09:41:50;20.80;84.00
48876;DHT22;34689;51.644;5.618;2022-07-29T09:44:21;21.00;84.00
48876;DHT22;34689;51.644;5.618;2022-07-29T09:46:59;21.00;83.70
48876;DHT22;34689;51.644;5.618;2022-07-29T09:49:34;21.10;83.60
48876;DHT22;34689;51.644;5.618;2022-07-29T09:54:27;21.30;83.20
48876;DHT22;34689;51.644;5.618;2022-07-29T09:56:54;21.40;83.20
48876;DHT22;34689;51.644;5.618;2022-07-29T09:59:20;21.60;83.10
48876;DHT22;34689;51.644;5.618;2022-07-29T10:01:52;21.70;82.60
48876;DHT22;34689;51.644;5.618;2022-07-29T10:04:18;21.80;82.50
48876;DHT22;34689;51.644;5.618;2022-07-29T10:06:58;22.00;81.80
48876;DHT22;34689;51.644;5.618;2022-07-29T10:09:25;22.20;81.40
48876;DHT22;34689;51.644;5.618;2022-07-29T10:12:09;22.40;81.00
48876;DHT22;34689;51.644;5.618;2022-07-29T10:14:37;22.60;81.10
48876;DHT22;34689;51.644;5.618;2022-07-29T10:17:04;23.20;80.40
48876;DHT22;34689;51.644;5.618;2022-07-29T10:19:31;24.80;78.00
48876;DHT22;34689;51.644;5.618;2022-07-29T10:22:02;26.90;73.60
48876;DHT22;34689;51.644;5.618;2022-07-29T10:24:30;28.50;69.80
48876;DHT22;34689;51.644;5.618;2022-07-29T10:26:57;29.70;66.90
48876;DHT22;34689;51.644;5.618;2022-07-29T10:29:24;30.50;65.00
48876;DHT22;34689;51.644;5.618;2022-07-29T10:37:41;31.30;60.80
48876;DHT22;34689;51.644;5.618;2022-07-29T10:40:54;30.90;62.90
48876;DHT22;34689;51.644;5.618;2022-07-29T10:43:35;30.20;64.10
48876;DHT22;34689;51.644;5.618;2022-07-29T10:46:03;28.90;66.80
48876;DHT22;34689;51.644;5.618;2022-07-29T10:48:29;28.30;69.00
48876;DHT22;34689;51.644;5.618;2022-07-29T10:51:00;27.70;69.50
48876;DHT22;34689;51.644;5.618;2022-07-29T10:53:57;27.30;70.10
48876;DHT22;34689;51.644;5.618;2022-07-29T10:56:26;27.00;70.00
48876;DHT22;34689;51.644;5.618;2022-07-29T11:01:47;26.40;69.60
48876;DHT22;34689;51.644;5.618;2022-07-29T11:04:13;26.10;71.10
48876;DHT22;34689;51.644;5.618;2022-07-29T11:09:26;25.70;71.40
48876;DHT22;34689;51.644;5.618;2022-07-29T11:11:51;25.50;72.00
48876;DHT22;34689;51.644;5.618;2022-07-29T11:14:18;25.40;72.00
48876;DHT22;34689;51.644;5.618;2022-07-29T11:17:04;25.30;72.10
48876;DHT22;34689;51.644;5.618;2022-07-29T11:19:31;25.10;71.90
48876;DHT22;34689;51.644;5.618;2022-07-29T11:21:59;25.00;72.30
48876;DHT22;34689;51.644;5.618;2022-07-29T11:24:29;25.00;72.00
48876;DHT22;34689;51.644;5.618;2022-07-29T11:27:12;24.80;71.90
48876;DHT22;34689;51.644;5.618;2022-07-29T11:29:55;24.70;71.70
48876;DHT22;34689;51.644;5.618;2022-07-29T11:32:22;24.60;71.90
48876;DHT22;34689;51.644;5.618;2022-07-29T11:34:48;24.60;72.30
48876;DHT22;34689;51.644;5.618;2022-07-29T11:37:16;24.50;72.30
48876;DHT22;34689;51.644;5.618;2022-07-29T11:45:17;24.40;72.40
48876;DHT22;34689;51.644;5.618;2022-07-29T11:50:14;24.40;72.50
48876;DHT22;34689;51.644;5.618;2022-07-29T11:52:46;24.40;72.40
48876;DHT22;34689;51.644;5.618;2022-07-29T11:55:19;24.40;72.00
48876;DHT22;34689;51.644;5.618;2022-07-29T11:57:49;24.40;72.30
48876;DHT22;34689;51.644;5.618;2022-07-29T12:00:41;24.40;72.10
48876;DHT22;34689;51.644;5.618;2022-07-29T12:03:09;24.40;71.10
48876;DHT22;34689;51.644;5.618;2022-07-29T12:05:44;24.40;71.60
48876;DHT22;34689;51.644;5.618;2022-07-29T12:08:19;24.40;71.80
48876;DHT22;34689;51.644;5.618;2022-07-29T12:10:47;24.40;72.30
48876;DHT22;34689;51.644;5.618;2022-07-29T12:13:14;24.40;71.70
48876;DHT22;34689;51.644;5.618;2022-07-29T12:15:41;24.50;71.80
48876;DHT22;34689;51.644;5.618;2022-07-29T12:18:19;24.50;71.70
48876;DHT22;34689;51.644;5.618;2022-07-29T12:20:46;24.50;71.50
48876;DHT22;34689;51.644;5.618;2022-07-29T12:23:13;24.60;71.30
48876;DHT22;34689;51.644;5.618;2022-07-29T12:25:41;24.50;70.80
48876;DHT22;34689;51.644;5.618;2022-07-29T12:28:08;24.50;71.10
48876;DHT22;34689;51.644;5.618;2022-07-29T12:31:01;24.50;71.00
48876;DHT22;34689;51.644;5.618;2022-07-29T12:33:28;24.60;70.50
48876;DHT22;34689;51.644;5.618;2022-07-29T12:35:57;24.60;70.70
48876;DHT22;34689;51.644;5.618;2022-07-29T12:38:23;24.60;70.80
48876;DHT22;34689;51.644;5.618;2022-07-29T12:40:51;24.60;70.70
48876;DHT22;34689;51.644;5.618;2022-07-29T12:43:19;24.60;70.10
48876;DHT22;34689;51.644;5.618;2022-07-29T12:45:50;24.50;70.40
48876;DHT22;34689;51.644;5.618;2022-07-29T12:48:22;24.60;70.70
48876;DHT22;34689;51.644;5.618;2022-07-29T12:51:00;24.60;70.70
48876;DHT22;34689;51.644;5.618;2022-07-29T12:53:27;24.60;70.30
48876;DHT22;34689;51.644;5.618;2022-07-29T12:55:54;24.60;70.10
48876;DHT22;34689;51.644;5.618;2022-07-29T12:58:36;24.60;70.30
48876;DHT22;34689;51.644;5.618;2022-07-29T13:01:08;24.60;69.70
48876;DHT22;34689;51.644;5.618;2022-07-29T13:03:48;24.70;69.70
48876;DHT22;34689;51.644;5.618;2022-07-29T13:11:35;24.80;69.70
48876;DHT22;34689;51.644;5.618;2022-07-29T13:14:01;24.80;69.30
48876;DHT22;34689;51.644;5.618;2022-07-29T13:16:27;24.90;69.00
48876;DHT22;34689;51.644;5.618;2022-07-29T13:19:10;24.90;69.00
48876;DHT22;34689;51.644;5.618;2022-07-29T13:21:38;25.00;68.90
48876;DHT22;34689;51.644;5.618;2022-07-29T13:24:05;25.00;68.80
48876;DHT22;34689;51.644;5.618;2022-07-29T13:26:31;25.00;68.80
48876;DHT22;34689;51.644;5.618;2022-07-29T13:28:57;25.00;69.00
48876;DHT22;34689;51.644;5.618;2022-07-29T13:31:23;25.00;69.00
48876;DHT22;34689;51.644;5.618;2022-07-29T13:33:49;25.00;68.50
48876;DHT22;34689;51.644;5.618;2022-07-29T13:36:14;25.00;68.80
48876;DHT22;34689;51.644;5.618;2022-07-29T13:38:40;25.00;68.50
48876;DHT22;34689;51.644;5.618;2022-07-29T13:41:06;24.90;68.40
48876;DHT22;34689;51.644;5.618;2022-07-29T13:43:31;24.90;68.80
48876;DHT22;34689;51.644;5.618;2022-07-29T13:45:57;24.90;68.70
48876;DHT22;34689;51.644;5.618;2022-07-29T13:48:23;24.90;68.90
48876;DHT22;34689;51.644;5.618;2022-07-29T13:50:48;24.80;68.80
48876;DHT22;34689;51.644;5.618;2022-07-29T13:53:14;24.80;68.90
48876;DHT22;34689;51.644;5.618;2022-07-29T13:55:40;24.90;68.80
48876;DHT22;34689;51.644;5.618;2022-07-29T13:58:05;24.90;68.80
48876;DHT22;34689;51.644;5.618;2022-07-29T14:00:31;25.00;69.40
48876;DHT22;34689;51.644;5.618;2022-07-29T14:02:57;25.00;68.50
48876;DHT22;34689;51.644;5.618;2022-07-29T14:05:23;25.00;68.20
48876;DHT22;34689;51.644;5.618;2022-07-29T14:07:48;25.00;67.80
48876;DHT22;34689;51.644;5.618;2022-07-29T14:10:14;25.00;68.20
48876;DHT22;34689;51.644;5.618;2022-07-29T14:12:39;25.10;68.10
48876;DHT22;34689;51.644;5.618;2022-07-29T14:15:07;25.10;67.90
48876;DHT22;34689;51.644;5.618;2022-07-29T14:17:36;25.20;67.80
48876;DHT22;34689;51.644;5.618;2022-07-29T14:20:02;25.20;67.60
48876;DHT22;34689;51.644;5.618;2022-07-29T14:22:27;25.30;67.30
48876;DHT22;34689;51.644;5.618;2022-07-29T14:24:53;25.40;67.40
48876;DHT22;34689;51.644;5.618;2022-07-29T14:27:18;25.50;66.60
48876;DHT22;34689;51.644;5.618;2022-07-29T14:29:44;25.60;66.40
48876;DHT22;34689;51.644;5.618;2022-07-29T14:32:10;25.70;66.10
48876;DHT22;34689;51.644;5.618;2022-07-29T14:34:37;25.80;66.00
48876;DHT22;34689;51.644;5.618;2022-07-29T14:37:03;25.90;66.10
48876;DHT22;34689;51.644;5.618;2022-07-29T14:39:31;25.90;65.50
48876;DHT22;34689;51.644;5.618;2022-07-29T14:41:56;26.00;65.60
48876;DHT22;34689;51.644;5.618;2022-07-29T14:44:25;26.00;65.70
48876;DHT22;34689;51.644;5.618;2022-07-29T14:46:59;26.10;65.70
48876;DHT22;34689;51.644;5.618;2022-07-29T14:49:26;26.10;65.60
48876;DHT22;34689;51.644;5.618;2022-07-29T14:51:51;26.20;65.10
48876;DHT22;34689;51.644;5.618;2022-07-29T14:54:18;26.20;65.00
48876;DHT22;34689;51.644;5.618;2022-07-29T14:56:46;26.20;65.00
48876;DHT22;34689;51.644;5.618;2022-07-29T14:59:12;26.20;64.80
48876;DHT22;34689;51.644;5.618;2022-07-29T15:01:37;26.20;64.50
48876;DHT22;34689;51.644;5.618;2022-07-29T15:04:03;26.20;64.40
48876;DHT22;34689;51.644;5.618;2022-07-29T15:06:29;26.20;64.60
48876;DHT22;34689;51.644;5.618;2022-07-29T15:08:55;26.20;64.70
48876;DHT22;34689;51.644;5.618;2022-07-29T15:11:20;26.20;64.70
48876;DHT22;34689;51.644;5.618;2022-07-29T15:13:46;26.20;64.50
48876;DHT22;34689;51.644;5.618;2022-07-29T15:16:12;26.20;64.60
48876;DHT22;34689;51.644;5.618;2022-07-29T15:18:37;26.20;64.20
48876;DHT22;34689;51.644;5.618;2022-07-29T15:21:04;26.10;64.00
48876;DHT22;34689;51.644;5.618;2022-07-29T15:23:31;26.00;64.40
48876;DHT22;34689;51.644;5.618;2022-07-29T15:25:57;25.90;64.50
48876;DHT22;34689;51.644;5.618;2022-07-29T15:28:23;25.80;64.60
48876;DHT22;34689;51.644;5.618;2022-07-29T15:30:48;25.80;64.90
48876;DHT22;34689;51.644;5.618;2022-07-29T15:33:14;25.80;65.00
48876;DHT22;34689;51.644;5.618;2022-07-29T15:35:40;25.80;64.90
48876;DHT22;34689;51.644;5.618;2022-07-29T15:38:06;25.80;64.90
48876;DHT22;34689;51.644;5.618;2022-07-29T15:40:31;25.80;64.90
48876;DHT22;34689;51.644;5.618;2022-07-29T15:43:00;25.80;64.80
48876;DHT22;34689;51.644;5.618;2022-07-29T15:45:35;25.90;64.80
48876;DHT22;34689;51.644;5.618;2022-07-29T15:48:01;25.90;64.70
48876;DHT22;34689;51.644;5.618;2022-07-29T15:50:27;25.90;64.80
48876;DHT22;34689;51.644;5.618;2022-07-29T15:52:52;25.90;64.70
48876;DHT22;34689;51.644;5.618;2022-07-29T15:55:18;25.80;64.70
48876;DHT22;34689;51.644;5.618;2022-07-29T15:57:44;25.80;64.80
48876;DHT22;34689;51.644;5.618;2022-07-29T16:00:10;25.80;64.60
48876;DHT22;34689;51.644;5.618;2022-07-29T16:02:36;25.80;64.70
48876;DHT22;34689;51.644;5.618;2022-07-29T16:05:02;25.70;64.70
48876;DHT22;34689;51.644;5.618;2022-07-29T16:07:28;25.60;65.00
48876;DHT22;34689;51.644;5.618;2022-07-29T16:09:53;25.60;65.40
48876;DHT22;34689;51.644;5.618;2022-07-29T16:12:19;25.50;65.60
48876;DHT22;34689;51.644;5.618;2022-07-29T16:14:45;25.40;65.70
48876;DHT22;34689;51.644;5.618;2022-07-29T16:17:13;25.40;65.60
48876;DHT22;34689;51.644;5.618;2022-07-29T16:19:39;25.30;65.60
48876;DHT22;34689;51.644;5.618;2022-07-29T16:22:05;25.30;65.80